sensor_id;sensor_type;location;lat;lon;timestamp;pressure;altitude;pressure_sealevel;temperature;humidity
31346;BME280;21711;49.708;18.568;2023-06-14T00:02:00;97220.38;;;9.99;100.00
31346;BME280;21711;49.708;18.568;2023-06-14T00:04:28;97221.16;;;9.99;100.00
31346;BME280;21711;49.708;18.568;2023-06-14T00:06:56;97210.34;;;9.96;100.00
31346;BME280;21711;49.708;18.568;2023-06-14T00:09:23;97220.09;;;9.95;100.00
31346;BME280;21711;49.708;18.568;2023-06-14T00:11:51;97214.31;;;9.88;100.00
31346;BME280;21711;49.708;18.568;2023-06-14T00:14:19;97211.47;;;9.69;100.00
31346;BME280;21711;49.708;18.568;2023-06-14T00:16:46;97214.66;;;9.60;100.00
31346;BME280;21711;49.708;18.568;2023-06-14T00:19:15;97216.75;;;9.58;100.00
31346;BME280;21711;49.708;18.568;2023-06-14T00:21:43;97210.16;;;9.56;100.00
31346;BME280;21711;49.708;18.568;2023-06-14T00:24:11;97217.59;;;9.49;100.00
31346;BME280;21711;49.708;18.568;2023-06-14T00:26:38;97208.34;;;9.41;100.00
31346;BME280;21711;49.708;18.568;2023-06-14T00:29:05;97213.38;;;9.27;100.00
31346;BME280;21711;49.708;18.568;2023-06-14T00:31:33;97216.00;;;9.32;100.00
31346;BME280;21711;49.708;18.568;2023-06-14T00:34:00;97213.09;;;9.33;100.00
31346;BME280;21711;49.708;18.568;2023-06-14T00:36:28;97212.31;;;9.33;100.00
31346;BME280;21711;49.708;18.568;2023-06-14T00:38:55;97206.53;;;9.26;100.00
31346;BME280;21711;49.708;18.568;2023-06-14T00:41:22;97205.72;;;9.20;100.00
31346;BME280;21711;49.708;18.568;2023-06-14T00:43:50;97201.25;;;9.26;100.00
31346;BME280;21711;49.708;18.568;2023-06-14T00:46:19;97207.84;;;9.18;100.00
31346;BME280;21711;49.708;18.568;2023-06-14T00:48:48;97202.03;;;9.16;100.00
31346;BME280;21711;49.708;18.568;2023-06-14T00:51:16;97197.28;;;9.18;100.00
31346;BME280;21711;49.708;18.568;2023-06-14T00:53:44;97196.75;;;9.11;100.00
31346;BME280;21711;49.708;18.568;2023-06-14T00:56:14;97198.88;;;9.08;100.00
31346;BME280;21711;49.708;18.568;2023-06-14T00:58:43;97202.84;;;9.01;100.00
31346;BME280;21711;49.708;18.568;2023-06-14T01:01:11;97200.97;;;9.06;100.00
31346;BME280;21711;49.708;18.568;2023-06-14T01:03:38;97199.13;;;9.07;100.00
31346;BME280;21711;49.708;18.568;2023-06-14T01:07:11;97200.97;;;9.12;100.00
31346;BME280;21711;49.708;18.568;2023-06-14T01:15:29;97199.66;;;8.88;100.00
31346;BME280;21711;49.708;18.568;2023-06-14T01:17:57;97204.66;;;8.79;100.00
31346;BME280;21711;49.708;18.568;2023-06-14T01:20:33;97190.16;;;8.77;100.00
31346;BME280;21711;49.708;18.568;2023-06-14T01:23:04;97197.28;;;8.87;100.00
31346;BME280;21711;49.708;18.568;2023-06-14T01:25:31;97194.13;;;8.85;100.00
31346;BME280;21711;49.708;18.568;2023-06-14T01:28:02;97195.44;;;8.98;100.00
31346;BME280;21711;49.708;18.568;2023-06-14T01:30:31;97202.28;;;8.93;100.00
31346;BME280;21711;49.708;18.568;2023-06-14T01:33:05;97194.91;;;8.90;100.00
31346;BME280;21711;49.708;18.568;2023-06-14T01:35:32;97193.31;;;8.94;100.00
31346;BME280;21711;49.708;18.568;2023-06-14T01:38:02;97201.78;;;8.97;100.00
31346;BME280;21711;49.708;18.568;2023-06-14T01:40:31;97198.59;;;8.79;100.00
31346;BME280;21711;49.708;18.568;2023-06-14T01:43:01;97203.06;;;8.84;100.00
31346;BME280;21711;49.708;18.568;2023-06-14T01:45:31;97198.59;;;8.84;100.00
31346;BME280;21711;49.708;18.568;2023-06-14T01:47:59;97199.66;;;8.88;100.00
31346;BME280;21711;49.708;18.568;2023-06-14T01:50:31;97192.25;;;8.85;100.00
31346;BME280;21711;49.708;18.568;2023-06-14T01:52:58;97190.16;;;8.92;100.00
31346;BME280;21711;49.708;18.568;2023-06-14T01:55:26;97192.81;;;8.87;100.00
31346;BME280;21711;49.708;18.568;2023-06-14T01:57:54;97193.56;;;8.77;100.00
31346;BME280;21711;49.708;18.568;2023-06-14T02:00:22;97201.47;;;8.72;100.00
31346;BME280;21711;49.708;18.568;2023-06-14T02:02:52;97204.63;;;8.74;100.00
31346;BME280;21711;49.708;18.568;2023-06-14T02:05:19;97205.44;;;8.70;100.00
31346;BME280;21711;49.708;18.568;2023-06-14T02:07:48;97202.53;;;8.81;100.00
31346;BME280;21711;49.708;18.568;2023-06-14T02:10:17;97201.78;;;9.02;100.00
31346;BME280;21711;49.708;18.568;2023-06-14T02:12:46;97206.00;;;9.03;100.00
31346;BME280;21711;49.708;18.568;2023-06-14T02:15:14;97198.88;;;8.98;100.00
31346;BME280;21711;49.708;18.568;2023-06-14T02:17:47;97198.88;;;9.03;100.00
31346;BME280;21711;49.708;18.568;2023-06-14T02:20:17;97198.06;;;9.13;100.00
31346;BME280;21711;49.708;18.568;2023-06-14T02:22:45;97209.94;;;9.37;100.00
31346;BME280;21711;49.708;18.568;2023-06-14T02:25:13;97205.44;;;9.42;100.00
31346;BME280;21711;49.708;18.568;2023-06-14T02:27:40;97212.31;;;9.49;100.00
31346;BME280;21711;49.708;18.568;2023-06-14T02:30:11;97204.91;;;9.51;100.00
31346;BME280;21711;49.708;18.568;2023-06-14T02:32:39;97203.81;;;9.62;100.00
31346;BME280;21711;49.708;18.568;2023-06-14T02:35:08;97198.81;;;9.66;100.00
31346;BME280;21711;49.708;18.568;2023-06-14T02:37:36;97206.47;;;9.67;100.00
31346;BME280;21711;49.708;18.568;2023-06-14T02:40:04;97205.94;;;9.60;100.00
31346;BME280;21711;49.708;18.568;2023-06-14T02:42:33;97205.72;;;9.46;100.00
31346;BME280;21711;49.708;18.568;2023-06-14T02:45:00;97197.53;;;9.21;100.00
31346;BME280;21711;49.708;18.568;2023-06-14T02:47:29;97199.13;;;9.12;100.00
31346;BME280;21711;49.708;18.568;2023-06-14T02:49:57;97198.06;;;9.13;100.00
31346;BME280;21711;49.708;18.568;2023-06-14T02:52:24;97197.78;;;9.30;100.00
31346;BME280;21711;49.708;18.568;2023-06-14T02:54:52;97200.44;;;9.46;100.00
31346;BME280;21711;49.708;18.568;2023-06-14T02:57:22;97201.19;;;9.57;100.00
31346;BME280;21711;49.708;18.568;2023-06-14T02:59:49;97195.59;;;9.74;100.00
31346;BME280;21711;49.708;18.568;2023-06-14T03:02:17;97200.56;;;9.86;100.00
31346;BME280;21711;49.708;18.568;2023-06-14T03:04:45;97200.81;;;10.00;100.00
31346;BME280;21711;49.708;18.568;2023-06-14T03:07:16;97205.31;;;9.94;100.00
31346;BME280;21711;49.708;18.568;2023-06-14T03:09:49;97205.88;;;9.86;100.00
31346;BME280;21711;49.708;18.568;2023-06-14T03:12:18;97204.81;;;9.92;100.00
31346;BME280;21711;49.708;18.568;2023-06-14T03:14:45;97205.84;;;9.96;100.00
31346;BME280;21711;49.708;18.568;2023-06-14T03:17:15;97215.34;;;9.97;100.00
31346;BME280;21711;49.708;18.568;2023-06-14T03:19:44;97211.66;;;9.93;100.00
31346;BME280;21711;49.708;18.568;2023-06-14T03:22:14;97219.56;;;10.04;100.00
31346;BME280;21711;49.708;18.568;2023-06-14T03:24:42;97209.22;;;10.18;100.00
31346;BME280;21711;49.708;18.568;2023-06-14T03:27:14;97217.88;;;10.34;100.00
31346;BME280;21711;49.708;18.568;2023-06-14T03:29:44;97215.75;;;10.31;100.00
31346;BME280;21711;49.708;18.568;2023-06-14T03:32:12;97211.09;;;10.07;100.00
31346;BME280;21711;49.708;18.568;2023-06-14T03:34:42;97216.88;;;10.14;100.00
31346;BME280;21711;49.708;18.568;2023-06-14T03:37:15;97211.03;;;10.22;100.00
31346;BME280;21711;49.708;18.568;2023-06-14T03:39:44;97220.00;;;10.26;100.00
31346;BME280;21711;49.708;18.568;2023-06-14T03:42:21;97219.69;;;10.33;100.00
31346;BME280;21711;49.708;18.568;2023-06-14T03:44:49;97227.94;;;10.26;100.00
31346;BME280;21711;49.708;18.568;2023-06-14T03:47:18;97228.66;;;10.48;100.00
31346;BME280;21711;49.708;18.568;2023-06-14T03:49:46;97231.78;;;10.60;100.00
31346;BME280;21711;49.708;18.568;2023-06-14T03:52:14;97237.22;;;10.74;100.00
31346;BME280;21711;49.708;18.568;2023-06-14T03:54:44;97241.25;;;10.67;100.00
31346;BME280;21711;49.708;18.568;2023-06-14T03:57:15;97246.22;;;10.73;100.00
31346;BME280;21711;49.708;18.568;2023-06-14T03:59:44;97240.44;;;10.66;100.00
31346;BME280;21711;49.708;18.568;2023-06-14T04:02:11;97245.69;;;10.76;100.00
31346;BME280;21711;49.708;18.568;2023-06-14T04:04:44;97242.00;;;10.72;100.00
31346;BME280;21711;49.708;18.568;2023-06-14T04:07:12;97245.09;;;10.85;100.00
31346;BME280;21711;49.708;18.568;2023-06-14T04:09:41;97239.00;;;10.89;100.00
31346;BME280;21711;49.708;18.568;2023-06-14T04:12:09;97244.81;;;10.86;100.00
31346;BME280;21711;49.708;18.568;2023-06-14T04:14:40;97244.31;;;10.84;100.00
31346;BME280;21711;49.708;18.568;2023-06-14T04:17:09;97255.13;;;10.88;100.00
31346;BME280;21711;49.708;18.568;2023-06-14T04:19:38;97238.91;;;10.60;100.00
31346;BME280;21711;49.708;18.568;2023-06-14T04:22:05;97255.88;;;10.48;100.00
31346;BME280;21711;49.708;18.568;2023-06-14T04:24:35;97254.53;;;10.56;100.00
31346;BME280;21711;49.708;18.568;2023-06-14T04:27:03;97252.81;;;10.76;100.00
31346;BME280;21711;49.708;18.568;2023-06-14T04:29:31;97252.56;;;10.77;100.00
31346;BME280;21711;49.708;18.568;2023-06-14T04:32:04;97252.75;;;10.86;100.00
31346;BME280;21711;49.708;18.568;2023-06-14T04:34:33;97252.94;;;11.00;100.00
31346;BME280;21711;49.708;18.568;2023-06-14T04:37:03;97247.66;;;10.95;100.00
31346;BME280;21711;49.708;18.568;2023-06-14T04:39:34;97255.94;;;10.83;100.00
31346;BME280;21711;49.708;18.568;2023-06-14T04:42:02;97250.69;;;10.78;100.00
31346;BME280;21711;49.708;18.568;2023-06-14T04:44:31;97250.31;;;10.95;100.00
31346;BME280;21711;49.708;18.568;2023-06-14T04:47:04;97254.63;;;11.21;100.00
31346;BME280;21711;49.708;18.568;2023-06-14T04:49:31;97250.16;;;11.21;100.00
31346;BME280;21711;49.708;18.568;2023-06-14T04:52:00;97257.56;;;11.19;100.00
31346;BME280;21711;49.708;18.568;2023-06-14T04:54:41;97261.84;;;11.15;100.00
31346;BME280;21711;49.708;18.568;2023-06-14T04:57:10;97256.75;;;11.24;100.00
31346;BME280;21711;49.708;18.568;2023-06-14T04:59:43;97256.88;;;11.43;100.00
31346;BME280;21711;49.708;18.568;2023-06-14T05:02:11;97261.41;;;11.37;100.00
31346;BME280;21711;49.708;18.568;2023-06-14T05:04:39;97264.47;;;11.50;100.00
31346;BME280;21711;49.708;18.568;2023-06-14T05:07:08;97268.41;;;11.57;100.00
31346;BME280;21711;49.708;18.568;2023-06-14T05:09:37;97265.66;;;11.33;100.00
31346;BME280;21711;49.708;18.568;2023-06-14T05:12:05;97271.38;;;11.51;100.00
31346;BME280;21711;49.708;18.568;2023-06-14T05:14:35;97272.63;;;11.58;100.00
31346;BME280;21711;49.708;18.568;2023-06-14T05:17:05;97277.16;;;11.82;100.00
31346;BME280;21711;49.708;18.568;2023-06-14T05:19:32;97284.75;;;12.19;100.00
31346;BME280;21711;49.708;18.568;2023-06-14T05:22:00;97286.44;;;12.34;100.00
31346;BME280;21711;49.708;18.568;2023-06-14T05:24:28;97287.38;;;12.24;100.00
31346;BME280;21711;49.708;18.568;2023-06-14T05:26:57;97291.75;;;12.34;100.00
31346;BME280;21711;49.708;18.568;2023-06-14T05:29:25;97287.16;;;12.64;100.00
31346;BME280;21711;49.708;18.568;2023-06-14T05:31:56;97290.97;;;12.77;100.00
31346;BME280;21711;49.708;18.568;2023-06-14T05:34:24;97291.81;;;12.53;100.00
31346;BME280;21711;49.708;18.568;2023-06-14T05:36:51;97290.81;;;12.87;100.00
31346;BME280;21711;49.708;18.568;2023-06-14T05:39:19;97295.34;;;13.06;100.00
31346;BME280;21711;49.708;18.568;2023-06-14T05:41:46;97298.94;;;12.77;100.00
31346;BME280;21711;49.708;18.568;2023-06-14T05:44:16;97294.91;;;12.80;100.00
31346;BME280;21711;49.708;18.568;2023-06-14T05:46:44;97298.16;;;12.52;100.00
31346;BME280;21711;49.708;18.568;2023-06-14T05:49:11;97302.16;;;12.30;100.00
31346;BME280;21711;49.708;18.568;2023-06-14T05:51:39;97295.63;;;12.42;100.00
31346;BME280;21711;49.708;18.568;2023-06-14T05:54:06;97298.69;;;12.54;100.00
31346;BME280;21711;49.708;18.568;2023-06-14T05:56:33;97306.44;;;12.70;100.00
31346;BME280;21711;49.708;18.568;2023-06-14T05:59:02;97304.66;;;12.65;100.00
31346;BME280;21711;49.708;18.568;2023-06-14T06:01:29;97300.72;;;12.62;100.00
31346;BME280;21711;49.708;18.568;2023-06-14T06:03:57;97303.56;;;12.85;100.00
31346;BME280;21711;49.708;18.568;2023-06-14T06:06:25;97305.84;;;12.97;100.00
31346;BME280;21711;49.708;18.568;2023-06-14T06:08:52;97299.16;;;13.00;100.00
31346;BME280;21711;49.708;18.568;2023-06-14T06:11:21;97302.78;;;13.04;100.00
31346;BME280;21711;49.708;18.568;2023-06-14T06:13:48;97316.28;;;13.27;100.00
31346;BME280;21711;49.708;18.568;2023-06-14T06:16:16;97312.63;;;13.23;100.00
31346;BME280;21711;49.708;18.568;2023-06-14T06:18:43;97312.81;;;13.46;100.00
31346;BME280;21711;49.708;18.568;2023-06-14T06:21:11;97312.59;;;13.61;100.00
31346;BME280;21711;49.708;18.568;2023-06-14T06:23:39;97323.63;;;13.68;100.00
31346;BME280;21711;49.708;18.568;2023-06-14T06:26:06;97324.13;;;13.71;100.00
31346;BME280;21711;49.708;18.568;2023-06-14T06:28:34;97327.38;;;13.67;100.00
31346;BME280;21711;49.708;18.568;2023-06-14T06:31:01;97325.28;;;13.64;100.00
31346;BME280;21711;49.708;18.568;2023-06-14T06:33:31;97326.06;;;13.98;100.00
31346;BME280;21711;49.708;18.568;2023-06-14T06:35:58;97329.66;;;14.50;100.00
31346;BME280;21711;49.708;18.568;2023-06-14T06:38:26;97342.22;;;14.72;100.00
31346;BME280;21711;49.708;18.568;2023-06-14T06:40:53;97341.34;;;14.91;100.00
31346;BME280;21711;49.708;18.568;2023-06-14T06:43:21;97344.53;;;14.79;100.00
31346;BME280;21711;49.708;18.568;2023-06-14T06:45:49;97349.84;;;15.30;100.00
31346;BME280;21711;49.708;18.568;2023-06-14T06:48:16;97343.13;;;14.95;100.00
31346;BME280;21711;49.708;18.568;2023-06-14T06:50:44;97349.22;;;14.96;100.00
31346;BME280;21711;49.708;18.568;2023-06-14T06:53:12;97353.38;;;15.02;100.00
31346;BME280;21711;49.708;18.568;2023-06-14T06:55:44;97353.06;;;15.41;100.00
31346;BME280;21711;49.708;18.568;2023-06-14T06:58:13;97353.72;;;15.69;100.00
31346;BME280;21711;49.708;18.568;2023-06-14T07:00:41;97353.59;;;15.74;100.00
31346;BME280;21711;49.708;18.568;2023-06-14T07:03:08;97356.69;;;15.68;100.00
31346;BME280;21711;49.708;18.568;2023-06-14T07:05:36;97359.84;;;15.93;100.00
31346;BME280;21711;49.708;18.568;2023-06-14T07:08:04;97364.28;;;15.97;100.00
31346;BME280;21711;49.708;18.568;2023-06-14T07:10:31;97372.78;;;15.99;100.00
31346;BME280;21711;49.708;18.568;2023-06-14T07:12:59;97372.72;;;16.22;100.00
31346;BME280;21711;49.708;18.568;2023-06-14T07:15:26;97376.44;;;16.12;100.00
31346;BME280;21711;49.708;18.568;2023-06-14T07:17:54;97370.28;;;16.03;100.00
31346;BME280;21711;49.708;18.568;2023-06-14T07:20:27;97374.56;;;15.67;100.00
31346;BME280;21711;49.708;18.568;2023-06-14T07:22:55;97372.78;;;15.39;100.00
31346;BME280;21711;49.708;18.568;2023-06-14T07:25:22;97367.97;;;15.42;100.00
31346;BME280;21711;49.708;18.568;2023-06-14T07:27:50;97367.81;;;16.15;100.00
31346;BME280;21711;49.708;18.568;2023-06-14T07:30:17;97368.75;;;17.09;100.00
31346;BME280;21711;49.708;18.568;2023-06-14T07:32:45;97368.91;;;17.13;100.00
31346;BME280;21711;49.708;18.568;2023-06-14T07:35:12;97368.66;;;16.65;100.00
31346;BME280;21711;49.708;18.568;2023-06-14T07:37:40;97368.47;;;16.62;100.00
31346;BME280;21711;49.708;18.568;2023-06-14T07:40:08;97370.53;;;16.24;100.00
31346;BME280;21711;49.708;18.568;2023-06-14T07:42:37;97371.72;;;16.09;100.00
31346;BME280;21711;49.708;18.568;2023-06-14T07:45:05;97372.38;;;16.15;100.00
31346;BME280;21711;49.708;18.568;2023-06-14T07:47:33;97368.84;;;16.28;100.00
31346;BME280;21711;49.708;18.568;2023-06-14T07:50:01;97372.13;;;16.75;100.00
31346;BME280;21711;49.708;18.568;2023-06-14T07:52:30;97368.94;;;16.55;100.00
31346;BME280;21711;49.708;18.568;2023-06-14T07:54:58;97372.91;;;16.75;100.00
31346;BME280;21711;49.708;18.568;2023-06-14T07:57:25;97375.63;;;16.93;100.00
31346;BME280;21711;49.708;18.568;2023-06-14T07:59:53;97381.91;;;16.97;100.00
31346;BME280;21711;49.708;18.568;2023-06-14T08:02:20;97374.28;;;17.31;100.00
31346;BME280;21711;49.708;18.568;2023-06-14T08:04:47;97375.53;;;17.16;100.00
31346;BME280;21711;49.708;18.568;2023-06-14T08:07:15;97381.50;;;17.21;100.00
31346;BME280;21711;49.708;18.568;2023-06-14T08:09:42;97378.63;;;17.00;100.00
31346;BME280;21711;49.708;18.568;2023-06-14T08:12:10;97373.19;;;17.32;100.00
31346;BME280;21711;49.708;18.568;2023-06-14T08:14:39;97378.66;;;17.18;100.00
31346;BME280;21711;49.708;18.568;2023-06-14T08:17:08;97367.66;;;17.11;100.00
31346;BME280;21711;49.708;18.568;2023-06-14T08:19:35;97374.25;;;17.22;100.00
31346;BME280;21711;49.708;18.568;2023-06-14T08:22:03;97371.78;;;17.26;100.00
31346;BME280;21711;49.708;18.568;2023-06-14T08:24:30;97374.91;;;17.63;100.00
31346;BME280;21711;49.708;18.568;2023-06-14T08:26:58;97371.41;;;17.71;100.00
31346;BME280;21711;49.708;18.568;2023-06-14T08:29:28;97376.47;;;17.55;100.00
31346;BME280;21711;49.708;18.568;2023-06-14T08:31:58;97374.13;;;17.54;100.00
31346;BME280;21711;49.708;18.568;2023-06-14T08:34:26;97383.22;;;17.26;100.00
31346;BME280;21711;49.708;18.568;2023-06-14T08:36:53;97389.38;;;17.27;100.00
31346;BME280;21711;49.708;18.568;2023-06-14T08:39:21;97384.44;;;17.02;100.00
31346;BME280;21711;49.708;18.568;2023-06-14T08:41:49;97382.88;;;17.01;100.00
31346;BME280;21711;49.708;18.568;2023-06-14T08:44:18;97380.13;;;16.75;100.00
31346;BME280;21711;49.708;18.568;2023-06-14T08:46:47;97379.13;;;17.29;100.00
31346;BME280;21711;49.708;18.568;2023-06-14T08:49:17;97388.06;;;18.51;98.11
31346;BME280;21711;49.708;18.568;2023-06-14T08:51:44;97395.34;;;19.54;94.38
31346;BME280;21711;49.708;18.568;2023-06-14T08:54:12;97394.72;;;19.69;81.49
31346;BME280;21711;49.708;18.568;2023-06-14T08:56:40;97393.28;;;20.89;77.04
31346;BME280;21711;49.708;18.568;2023-06-14T08:59:09;97397.81;;;22.12;70.45
31346;BME280;21711;49.708;18.568;2023-06-14T09:01:38;97399.78;;;23.32;64.26
31346;BME280;21711;49.708;18.568;2023-06-14T09:04:12;97395.47;;;23.27;58.68
31346;BME280;21711;49.708;18.568;2023-06-14T09:06:40;97399.41;;;22.29;60.07
31346;BME280;21711;49.708;18.568;2023-06-14T09:09:07;97404.06;;;21.31;66.60
31346;BME280;21711;49.708;18.568;2023-06-14T09:11:35;97400.22;;;20.78;67.33
31346;BME280;21711;49.708;18.568;2023-06-14T09:14:02;97403.25;;;20.52;67.52
31346;BME280;21711;49.708;18.568;2023-06-14T09:16:32;97403.63;;;20.16;67.96
31346;BME280;21711;49.708;18.568;2023-06-14T09:19:00;97398.97;;;20.50;68.63
31346;BME280;21711;49.708;18.568;2023-06-14T09:21:28;97395.13;;;20.14;69.00
31346;BME280;21711;49.708;18.568;2023-06-14T09:24:01;97393.59;;;19.92;68.28
31346;BME280;21711;49.708;18.568;2023-06-14T09:26:29;97396.75;;;20.53;64.38
31346;BME280;21711;49.708;18.568;2023-06-14T09:28:56;97390.13;;;21.00;64.97
31346;BME280;21711;49.708;18.568;2023-06-14T09:31:25;97394.28;;;21.51;62.57
31346;BME280;21711;49.708;18.568;2023-06-14T09:33:52;97394.97;;;20.94;64.10
31346;BME280;21711;49.708;18.568;2023-06-14T09:36:25;97401.31;;;21.14;62.72
31346;BME280;21711;49.708;18.568;2023-06-14T09:39:01;97396.28;;;21.54;65.78
31346;BME280;21711;49.708;18.568;2023-06-14T09:41:40;97391.44;;;21.19;62.22
31346;BME280;21711;49.708;18.568;2023-06-14T09:44:10;97396.13;;;21.63;62.11
31346;BME280;21711;49.708;18.568;2023-06-14T09:46:47;97399.06;;;22.47;61.91
31346;BME280;21711;49.708;18.568;2023-06-14T09:49:16;97399.88;;;22.99;59.63
31346;BME280;21711;49.708;18.568;2023-06-14T09:51:45;97406.75;;;23.92;56.35
31346;BME280;21711;49.708;18.568;2023-06-14T09:54:18;97405.72;;;23.37;57.90
31346;BME280;21711;49.708;18.568;2023-06-14T09:56:48;97406.50;;;24.21;56.33
31346;BME280;21711;49.708;18.568;2023-06-14T09:59:26;97402.97;;;24.40;49.90
31346;BME280;21711;49.708;18.568;2023-06-14T10:01:58;97406.69;;;25.67;48.52
31346;BME280;21711;49.708;18.568;2023-06-14T10:04:30;97411.06;;;26.20;45.48
31346;BME280;21711;49.708;18.568;2023-06-14T10:06:59;97404.13;;;26.23;46.30
31346;BME280;21711;49.708;18.568;2023-06-14T10:09:28;97397.06;;;26.56;47.04
31346;BME280;21711;49.708;18.568;2023-06-14T10:12:00;97397.88;;;25.43;46.99
31346;BME280;21711;49.708;18.568;2023-06-14T10:14:27;97390.56;;;24.86;47.83
31346;BME280;21711;49.708;18.568;2023-06-14T10:19:48;97394.03;;;24.12;53.58
31346;BME280;21711;49.708;18.568;2023-06-14T10:22:32;97381.13;;;23.82;52.61
31346;BME280;21711;49.708;18.568;2023-06-14T10:25:02;97381.00;;;23.35;55.22
31346;BME280;21711;49.708;18.568;2023-06-14T10:27:35;97378.66;;;23.73;53.75
31346;BME280;21711;49.708;18.568;2023-06-14T10:30:06;97385.59;;;24.91;51.02
31346;BME280;21711;49.708;18.568;2023-06-14T10:32:34;97379.34;;;24.60;49.08
31346;BME280;21711;49.708;18.568;2023-06-14T10:35:06;97370.66;;;23.81;51.12
31346;BME280;21711;49.708;18.568;2023-06-14T10:37:34;97370.34;;;23.62;52.42
31346;BME280;21711;49.708;18.568;2023-06-14T10:40:03;97368.56;;;23.31;54.29
31346;BME280;21711;49.708;18.568;2023-06-14T10:42:32;97363.44;;;22.70;58.13
31346;BME280;21711;49.708;18.568;2023-06-14T10:45:01;97368.28;;;24.19;53.54
31346;BME280;21711;49.708;18.568;2023-06-14T10:50:07;97374.75;;;24.88;49.32
31346;BME280;21711;49.708;18.568;2023-06-14T10:52:40;97366.31;;;22.61;53.99
31346;BME280;21711;49.708;18.568;2023-06-14T10:55:14;97365.97;;;23.34;53.21
31346;BME280;21711;49.708;18.568;2023-06-14T10:57:47;97365.31;;;24.51;51.06
31346;BME280;21711;49.708;18.568;2023-06-14T11:00:22;97357.25;;;24.54;51.12
31346;BME280;21711;49.708;18.568;2023-06-14T11:05:48;97357.72;;;22.23;56.25
31346;BME280;21711;49.708;18.568;2023-06-14T11:11:16;97355.81;;;22.07;59.11
31346;BME280;21711;49.708;18.568;2023-06-14T11:13:45;97351.25;;;22.44;60.19
31346;BME280;21711;49.708;18.568;2023-06-14T11:16:16;97363.31;;;22.50;57.74
31346;BME280;21711;49.708;18.568;2023-06-14T11:18:44;97357.53;;;22.64;57.47
31346;BME280;21711;49.708;18.568;2023-06-14T11:21:16;97358.50;;;22.56;56.24
31346;BME280;21711;49.708;18.568;2023-06-14T11:23:52;97349.28;;;22.09;58.47
31346;BME280;21711;49.708;18.568;2023-06-14T11:26:29;97347.28;;;21.61;57.36
31346;BME280;21711;49.708;18.568;2023-06-14T11:28:59;97351.69;;;21.69;58.26
31346;BME280;21711;49.708;18.568;2023-06-14T11:31:28;97355.25;;;22.50;55.43
31346;BME280;21711;49.708;18.568;2023-06-14T11:33:58;97346.75;;;22.64;53.51
31346;BME280;21711;49.708;18.568;2023-06-14T11:36:30;97354.41;;;22.98;56.78
31346;BME280;21711;49.708;18.568;2023-06-14T11:39:02;97351.44;;;22.51;57.49
31346;BME280;21711;49.708;18.568;2023-06-14T11:41:40;97345.25;;;22.51;58.69
31346;BME280;21711;49.708;18.568;2023-06-14T11:44:08;97347.28;;;22.38;58.36
31346;BME280;21711;49.708;18.568;2023-06-14T11:46:36;97346.66;;;22.12;58.09
31346;BME280;21711;49.708;18.568;2023-06-14T11:49:04;97342.31;;;22.40;58.63
31346;BME280;21711;49.708;18.568;2023-06-14T11:51:34;97342.16;;;23.01;54.78
31346;BME280;21711;49.708;18.568;2023-06-14T11:54:04;97336.41;;;23.22;52.89
31346;BME280;21711;49.708;18.568;2023-06-14T11:56:32;97335.97;;;23.20;51.33
31346;BME280;21711;49.708;18.568;2023-06-14T11:58:59;97344.88;;;23.83;51.76
31346;BME280;21711;49.708;18.568;2023-06-14T12:01:30;97332.94;;;23.41;50.21
31346;BME280;21711;49.708;18.568;2023-06-14T12:03:59;97327.66;;;23.91;50.89
31346;BME280;21711;49.708;18.568;2023-06-14T12:06:30;97326.00;;;23.40;53.56
31346;BME280;21711;49.708;18.568;2023-06-14T12:09:05;97333.09;;;23.29;52.36
31346;BME280;21711;49.708;18.568;2023-06-14T12:11:41;97327.97;;;22.52;56.29
31346;BME280;21711;49.708;18.568;2023-06-14T12:14:09;97330.16;;;21.98;54.41
31346;BME280;21711;49.708;18.568;2023-06-14T12:16:39;97325.22;;;22.00;56.05
31346;BME280;21711;49.708;18.568;2023-06-14T12:19:16;97325.66;;;22.18;51.50
31346;BME280;21711;49.708;18.568;2023-06-14T12:21:47;97320.50;;;22.45;53.21
31346;BME280;21711;49.708;18.568;2023-06-14T12:24:16;97323.72;;;22.34;48.34
31346;BME280;21711;49.708;18.568;2023-06-14T12:26:44;97321.75;;;22.31;51.77
31346;BME280;21711;49.708;18.568;2023-06-14T12:29:12;97316.75;;;23.02;58.10
31346;BME280;21711;49.708;18.568;2023-06-14T12:31:40;97326.69;;;23.37;53.39
31346;BME280;21711;49.708;18.568;2023-06-14T12:34:08;97325.34;;;23.27;55.25
31346;BME280;21711;49.708;18.568;2023-06-14T12:36:37;97323.91;;;23.14;53.37
31346;BME280;21711;49.708;18.568;2023-06-14T12:39:12;97326.41;;;22.67;52.03
31346;BME280;21711;49.708;18.568;2023-06-14T12:41:40;97320.41;;;22.41;49.48
31346;BME280;21711;49.708;18.568;2023-06-14T12:44:10;97309.16;;;21.87;49.66
31346;BME280;21711;49.708;18.568;2023-06-14T12:46:38;97313.16;;;22.10;52.72
31346;BME280;21711;49.708;18.568;2023-06-14T12:49:10;97304.19;;;22.90;48.42
31346;BME280;21711;49.708;18.568;2023-06-14T12:51:39;97316.69;;;22.62;52.84
31346;BME280;21711;49.708;18.568;2023-06-14T12:54:08;97307.66;;;22.54;51.86
31346;BME280;21711;49.708;18.568;2023-06-14T12:56:35;97304.19;;;21.89;50.18
31346;BME280;21711;49.708;18.568;2023-06-14T12:59:03;97304.00;;;21.37;50.95
31346;BME280;21711;49.708;18.568;2023-06-14T13:01:31;97299.66;;;21.77;55.92
31346;BME280;21711;49.708;18.568;2023-06-14T13:03:58;97305.53;;;22.64;53.94
31346;BME280;21711;49.708;18.568;2023-06-14T13:06:26;97311.06;;;23.07;52.85
31346;BME280;21711;49.708;18.568;2023-06-14T13:08:53;97309.38;;;23.38;50.78
31346;BME280;21711;49.708;18.568;2023-06-14T13:11:22;97307.75;;;23.33;48.07
31346;BME280;21711;49.708;18.568;2023-06-14T13:13:49;97303.56;;;22.44;51.88